createdAt,value
2018-10-16T00:00:28.069Z,101052.02
2018-10-16T00:02:56.798Z,101057.24
2018-10-16T00:05:25.753Z,101052.50
2018-10-16T00:07:54.382Z,101056.38
2018-10-16T00:10:28.172Z,101047.76
2018-10-16T00:12:57.071Z,101045.65
2018-10-16T00:15:25.817Z,101046.95
2018-10-16T00:17:54.656Z,101047.43
2018-10-16T00:20:23.333Z,101048.31
2018-10-16T00:22:52.177Z,101046.63
2018-10-16T00:25:20.804Z,101051.44
2018-10-16T00:27:49.735Z,101046.31
2018-10-16T00:30:19.127Z,101053.22
2018-10-16T00:32:47.850Z,101054.55
2018-10-16T00:35:16.615Z,101055.48
2018-10-16T00:37:45.289Z,101053.36
2018-10-16T00:40:14.549Z,101061.56
2018-10-16T00:42:43.434Z,101064.63
2018-10-16T00:45:12.765Z,101065.93
2018-10-16T00:47:41.560Z,101065.55
2018-10-16T00:50:10.377Z,101069.05
2018-10-16T00:52:39.522Z,101062.19
2018-10-16T00:55:09.323Z,101062.54
2018-10-16T00:57:38.410Z,101069.48
2018-10-16T01:00:08.732Z,101067.80
2018-10-16T01:02:37.488Z,101075.56
2018-10-16T01:05:07.595Z,101074.75
2018-10-16T01:07:36.423Z,101072.98
2018-10-16T01:10:05.808Z,101077.73
2018-10-16T01:12:34.485Z,101077.34
2018-10-16T01:15:03.330Z,101080.35
2018-10-16T01:17:32.258Z,101082.45
2018-10-16T01:20:00.995Z,101080.30
2018-10-16T01:22:29.731Z,101081.61
2018-10-16T01:24:58.774Z,101081.61
2018-10-16T01:27:27.395Z,101082.55
2018-10-16T01:29:56.148Z,101086.43
2018-10-16T01:32:24.852Z,101082.13
2018-10-16T01:34:53.501Z,101083.86
2018-10-16T01:37:22.304Z,101078.69
2018-10-16T01:39:51.184Z,101085.58
2018-10-16T01:42:20.022Z,101077.39
2018-10-16T01:44:48.793Z,101080.87
2018-10-16T01:47:17.586Z,101072.69
2018-10-16T01:49:46.421Z,101080.92
2018-10-16T01:52:15.069Z,101078.38
2018-10-16T01:54:43.893Z,101081.41
2018-10-16T01:57:12.845Z,101081.45
2018-10-16T01:59:41.691Z,101084.04
2018-10-16T02:02:10.529Z,101085.38
2018-10-16T02:04:39.351Z,101091.45
2018-10-16T02:07:08.132Z,101093.98
2018-10-16T02:09:36.857Z,101101.31
2018-10-16T02:12:05.730Z,101101.70
2018-10-16T02:14:34.519Z,101097.48
2018-10-16T02:17:03.462Z,101106.96
2018-10-16T02:19:32.157Z,101106.10
2018-10-16T02:22:00.925Z,101113.86
2018-10-16T02:24:29.974Z,101111.70
2018-10-16T02:26:58.689Z,101109.13
2018-10-16T02:29:27.412Z,101108.34
2018-10-16T02:31:56.018Z,101108.81
2018-10-16T02:34:24.822Z,101113.12
2018-10-16T02:36:53.414Z,101113.47
2018-10-16T02:39:22.638Z,101116.52
2018-10-16T02:41:51.394Z,101120.84
2018-10-16T02:44:20.137Z,101117.73
2018-10-16T02:46:48.855Z,101120.33
2018-10-16T02:49:17.644Z,101121.61
2018-10-16T02:51:46.246Z,101120.75
2018-10-16T02:54:14.851Z,101119.46
2018-10-16T02:56:43.564Z,101120.33
2018-10-16T02:59:12.271Z,101127.69
2018-10-16T03:01:40.875Z,101133.33
2018-10-16T03:04:09.519Z,101129.45
2018-10-16T03:06:38.208Z,101131.69
2018-10-16T03:09:08.888Z,101136.39
2018-10-16T03:11:37.727Z,101138.98
2018-10-16T03:14:06.656Z,101144.22
2018-10-16T03:16:35.305Z,101141.24
2018-10-16T03:19:04.211Z,101139.48
2018-10-16T03:21:32.766Z,101139.88
2018-10-16T03:24:02.419Z,101151.47
2018-10-16T03:26:31.263Z,101148.06
2018-10-16T03:28:59.880Z,101144.18
2018-10-16T03:31:28.521Z,101147.98
2018-10-16T03:33:57.143Z,101154.84
2018-10-16T03:36:25.807Z,101151.82
2018-10-16T03:38:54.404Z,101144.10
2018-10-16T03:41:23.145Z,101150.56
2018-10-16T03:43:58.208Z,101154.48
2018-10-16T03:46:27.175Z,101151.50
2018-10-16T03:49:01.996Z,101155.81
2018-10-16T03:51:30.812Z,101154.56
2018-10-16T03:53:59.684Z,101161.45
2018-10-16T03:56:28.361Z,101155.93
2018-10-16T03:58:57.080Z,101158.55
2018-10-16T04:01:26.832Z,101162.85
2018-10-16T04:03:55.483Z,101156.83
2018-10-16T04:06:24.211Z,101165.47
2018-10-16T04:08:53.458Z,101161.16
2018-10-16T04:11:22.340Z,101156.46
2018-10-16T04:13:51.493Z,101161.20
2018-10-16T04:16:20.519Z,101155.17
2018-10-16T04:18:49.578Z,101156.03
2018-10-16T04:21:18.271Z,101156.09
2018-10-16T04:23:47.077Z,101147.45
2018-10-16T04:26:15.830Z,101144.91
2018-10-16T04:28:44.506Z,101147.52
2018-10-16T04:31:13.175Z,101146.69
2018-10-16T04:33:41.882Z,101151.42
2018-10-16T04:36:10.568Z,101153.15
2018-10-16T04:38:39.293Z,101164.34
2018-10-16T04:41:07.917Z,101163.05
2018-10-16T04:43:36.678Z,101168.67
2018-10-16T04:46:06.916Z,101176.89
2018-10-16T04:48:36.783Z,101174.61
2018-10-16T04:51:05.600Z,101172.00
2018-10-16T04:53:34.205Z,101169.88
2018-10-16T04:56:03.540Z,101169.94
2018-10-16T04:58:32.393Z,101175.11
2018-10-16T05:01:01.759Z,101175.97
2018-10-16T05:03:30.548Z,101180.67
2018-10-16T05:05:59.312Z,101184.09
2018-10-16T05:08:27.929Z,101184.05
2018-10-16T05:10:56.729Z,101187.04
2018-10-16T05:13:25.612Z,101188.33
2018-10-16T05:15:54.647Z,101192.27
2018-10-16T05:18:23.403Z,101189.75
2018-10-16T05:20:52.409Z,101192.79
2018-10-16T05:23:21.228Z,101195.83
2018-10-16T05:25:49.992Z,101199.33
2018-10-16T05:28:18.624Z,101199.89
2018-10-16T05:30:47.473Z,101205.03
2018-10-16T05:33:16.177Z,101212.72
2018-10-16T05:35:44.906Z,101213.13
2018-10-16T05:38:13.768Z,101213.11
2018-10-16T05:40:42.594Z,101223.01
2018-10-16T05:43:11.274Z,101222.55
2018-10-16T05:45:42.222Z,101232.45
2018-10-16T05:48:11.018Z,101232.42
2018-10-16T05:50:39.985Z,101229.41
2018-10-16T05:53:08.827Z,101224.67
2018-10-16T05:55:37.596Z,101224.32
2018-10-16T05:58:06.676Z,101228.14
2018-10-16T06:00:41.455Z,101241.97
2018-10-16T06:03:10.555Z,101252.27
2018-10-16T06:05:39.377Z,101250.13
2018-10-16T06:08:08.427Z,101248.41
2018-10-16T06:10:37.595Z,101248.41
2018-10-16T06:13:06.415Z,101251.83
2018-10-16T06:15:35.251Z,101257.83
2018-10-16T06:18:03.999Z,101246.20
2018-10-16T06:20:33.061Z,101252.66
2018-10-16T06:23:02.402Z,101256.56
2018-10-16T06:25:31.221Z,101260.05
2018-10-16T06:28:03.665Z,101266.48
2018-10-16T06:30:32.635Z,101266.89
2018-10-16T06:33:02.454Z,101268.16
2018-10-16T06:35:31.290Z,101277.17
2018-10-16T06:37:59.901Z,101284.02
2018-10-16T06:40:28.572Z,101284.85
2018-10-16T06:42:57.295Z,101286.58
2018-10-16T06:45:26.006Z,101286.55
2018-10-16T06:47:54.854Z,101283.10
2018-10-16T06:50:23.535Z,101288.70
2018-10-16T06:52:52.185Z,101289.94
2018-10-16T06:55:21.074Z,101290.80
2018-10-16T06:57:50.018Z,101287.79
2018-10-16T07:00:18.720Z,101296.78
2018-10-16T07:02:47.434Z,101292.02
2018-10-16T07:05:16.093Z,101289.80
2018-10-16T07:07:44.713Z,101279.83
2018-10-16T07:10:13.520Z,101283.22
2018-10-16T07:12:42.136Z,101286.20
2018-10-16T07:15:10.990Z,101286.17
2018-10-16T07:17:39.656Z,101293.89
2018-10-16T07:20:09.117Z,101285.63
2018-10-16T07:22:37.868Z,101286.00
2018-10-16T07:25:08.220Z,101292.50
2018-10-16T07:27:37.041Z,101293.29
2018-10-16T07:30:07.775Z,101297.53
2018-10-16T07:32:36.444Z,101292.75
2018-10-16T07:35:06.643Z,101300.86
2018-10-16T07:37:35.636Z,101300.00
2018-10-16T07:40:04.921Z,101304.63
2018-10-16T07:42:33.762Z,101305.92
2018-10-16T07:45:02.554Z,101309.33
2018-10-16T07:47:31.334Z,101311.80
2018-10-16T07:50:00.160Z,101310.42
2018-10-16T07:52:28.801Z,101313.35
2018-10-16T07:54:57.476Z,101320.13
2018-10-16T07:57:26.181Z,101318.39
2018-10-16T07:59:54.953Z,101310.52
2018-10-16T08:02:23.726Z,101319.03
2018-10-16T08:04:52.568Z,101315.89
2018-10-16T08:07:21.246Z,101320.55
2018-10-16T08:09:50.255Z,101321.70
2018-10-16T08:12:18.940Z,101319.48
2018-10-16T08:14:47.674Z,101312.41
2018-10-16T08:17:16.679Z,101317.38
2018-10-16T08:19:45.378Z,101315.46
2018-10-16T08:22:14.232Z,101314.00
2018-10-16T08:24:42.983Z,101320.38
2018-10-16T08:27:11.701Z,101326.35
2018-10-16T08:29:40.544Z,101333.19
2018-10-16T08:32:09.324Z,101330.83
2018-10-16T08:34:38.033Z,101334.05
2018-10-16T08:37:08.589Z,101326.42
2018-10-16T08:39:39.693Z,101328.72
2018-10-16T08:42:21.085Z,101334.94
2018-10-16T08:45:26.790Z,101332.50
2018-10-16T08:49:10.748Z,101334.87
2018-10-16T08:51:45.121Z,101336.83
2018-10-16T08:54:13.809Z,101333.62
2018-10-16T08:56:42.584Z,101337.80
2018-10-16T08:59:11.464Z,101332.45
2018-10-16T09:01:40.156Z,101334.55
2018-10-16T09:04:08.875Z,101334.89
2018-10-16T09:06:37.653Z,101336.53
2018-10-16T09:09:10.178Z,101333.86
2018-10-16T09:11:38.863Z,101334.66
2018-10-16T09:14:08.232Z,101334.55
2018-10-16T09:16:36.946Z,101333.95
2018-10-16T09:19:05.804Z,101334.22
2018-10-16T09:21:34.488Z,101340.05
2018-10-16T09:24:04.092Z,101335.52
2018-10-16T09:26:32.816Z,101335.29
2018-10-16T09:29:01.942Z,101332.39
2018-10-16T09:31:30.707Z,101328.21
2018-10-16T09:33:59.543Z,101337.08
2018-10-16T09:36:28.245Z,101332.61
2018-10-16T09:38:56.908Z,101341.17
2018-10-16T09:41:25.610Z,101332.86
2018-10-16T09:43:54.345Z,101334.05
2018-10-16T09:46:23.256Z,101335.26
2018-10-16T09:48:52.174Z,101328.57
2018-10-16T09:51:21.001Z,101328.09
2018-10-16T09:53:49.703Z,101329.25
2018-10-16T09:56:18.465Z,101322.68
2018-10-16T09:58:47.287Z,101321.28
2018-10-16T10:01:21.236Z,101316.40
2018-10-16T10:03:49.998Z,101321.91
2018-10-16T10:06:18.811Z,101331.41
2018-10-16T10:08:47.638Z,101329.13
2018-10-16T10:11:16.314Z,101330.78
2018-10-16T10:13:45.482Z,101328.17
2018-10-16T10:16:14.215Z,101325.09
2018-10-16T10:18:43.065Z,101335.84
2018-10-16T10:21:11.696Z,101337.38
2018-10-16T10:23:40.406Z,101337.22
2018-10-16T10:26:09.138Z,101339.98
2018-10-16T10:28:37.874Z,101340.08
2018-10-16T10:31:06.723Z,101336.15
2018-10-16T10:33:35.490Z,101331.45
2018-10-16T10:36:04.344Z,101333.94
2018-10-16T10:38:33.165Z,101331.42
2018-10-16T10:41:02.180Z,101328.80
2018-10-16T10:43:30.927Z,101330.95
2018-10-16T10:46:00.235Z,101330.35
2018-10-16T10:48:29.144Z,101329.54
2018-10-16T10:50:58.117Z,101330.99
2018-10-16T10:53:26.595Z,101324.87
2018-10-16T10:55:55.547Z,101332.41
2018-10-16T10:58:24.203Z,101333.23
2018-10-16T11:00:53.032Z,101336.70
2018-10-16T11:03:21.880Z,101333.50
2018-10-16T11:05:50.411Z,101329.77
2018-10-16T11:08:19.036Z,101328.27
2018-10-16T11:10:47.821Z,101329.23
2018-10-16T11:13:16.532Z,101334.98
2018-10-16T11:15:45.319Z,101334.13
2018-10-16T11:18:14.123Z,101336.66
2018-10-16T11:20:43.992Z,101323.16
2018-10-16T11:23:12.842Z,101324.53
2018-10-16T11:25:41.546Z,101328.37
2018-10-16T11:28:10.324Z,101327.15
2018-10-16T11:30:39.171Z,101323.27
2018-10-16T11:33:09.898Z,101327.70
2018-10-16T11:35:38.572Z,101327.26
2018-10-16T11:38:07.331Z,101323.61
2018-10-16T11:40:36.267Z,101325.32
2018-10-16T11:43:05.608Z,101328.75
2018-10-16T11:45:35.959Z,101327.38
2018-10-16T11:48:04.760Z,101325.06
2018-10-16T11:50:33.489Z,101325.92
2018-10-16T11:53:03.395Z,101324.61
2018-10-16T11:55:35.224Z,101325.47
2018-10-16T11:58:07.073Z,101325.09
2018-10-16T12:00:36.170Z,101329.02
2018-10-16T12:03:05.267Z,101326.37
2018-10-16T12:05:34.010Z,101331.14
2018-10-16T12:08:03.143Z,101336.78
2018-10-16T12:10:32.423Z,101336.59
2018-10-16T12:13:01.399Z,101339.88
2018-10-16T12:15:30.105Z,101337.94
2018-10-16T12:18:05.178Z,101339.58
2018-10-16T12:20:45.315Z,101337.67
2018-10-16T12:23:14.018Z,101334.00
2018-10-16T12:25:42.947Z,101333.36
2018-10-16T12:28:11.760Z,101332.27
2018-10-16T12:30:41.115Z,101327.86
2018-10-16T12:33:09.966Z,101325.05
2018-10-16T12:35:38.629Z,101327.30
2018-10-16T12:38:07.446Z,101327.45
2018-10-16T12:40:36.956Z,101330.11
2018-10-16T12:43:06.022Z,101331.48
2018-10-16T12:45:34.654Z,101333.73
2018-10-16T12:48:03.715Z,101335.97
2018-10-16T12:50:32.334Z,101337.77
2018-10-16T12:53:02.666Z,101338.22
2018-10-16T12:55:31.926Z,101340.95
2018-10-16T12:58:00.593Z,101349.20
2018-10-16T13:00:29.294Z,101350.62
2018-10-16T13:02:58.078Z,101346.29
2018-10-16T13:05:27.138Z,101345.92
2018-10-16T13:07:55.807Z,101345.06
2018-10-16T13:10:24.666Z,101347.67
2018-10-16T13:12:53.451Z,101352.37
2018-10-16T13:15:22.247Z,101351.19
2018-10-16T13:17:50.983Z,101352.56
2018-10-16T13:20:19.816Z,101354.32
2018-10-16T13:22:49.246Z,101356.97
2018-10-16T13:25:18.247Z,101357.53
2018-10-16T13:27:46.855Z,101354.92
2018-10-16T13:30:19.877Z,101351.08
2018-10-16T13:32:49.477Z,101351.97
2018-10-16T13:35:19.546Z,101355.08
2018-10-16T13:37:48.850Z,101356.45
2018-10-16T13:40:17.998Z,101353.13
2018-10-16T13:42:46.714Z,101354.84
2018-10-16T13:45:16.395Z,101354.95
2018-10-16T13:47:45.173Z,101361.11
2018-10-16T13:50:16.443Z,101352.91
2018-10-16T13:52:46.124Z,101352.94
2018-10-16T13:55:15.058Z,101351.74
2018-10-16T13:57:44.252Z,101356.18
2018-10-16T14:00:16.412Z,101355.25
2018-10-16T14:02:46.402Z,101360.37
2018-10-16T14:05:15.155Z,101361.11
2018-10-16T14:07:43.889Z,101364.48
2018-10-16T14:10:13.910Z,101367.45
2018-10-16T14:12:43.541Z,101365.30
2018-10-16T14:15:12.935Z,101362.61
2018-10-16T14:17:41.696Z,101364.40
2018-10-16T14:20:10.930Z,101363.58
2018-10-16T14:22:40.850Z,101365.30
2018-10-16T14:25:11.041Z,101360.48
2018-10-16T14:27:40.331Z,101360.00
2018-10-16T14:30:10.671Z,101360.52
2018-10-16T14:32:39.598Z,101358.87
2018-10-16T14:35:09.285Z,101362.08
2018-10-16T14:37:38.547Z,101350.95
2018-10-16T14:40:08.885Z,101356.77
2018-10-16T14:42:37.825Z,101357.36
2018-10-16T14:45:10.906Z,101356.31
2018-10-16T14:47:39.594Z,101360.09
2018-10-16T14:50:09.307Z,101358.97
2018-10-16T14:52:38.177Z,101356.98
2018-10-16T14:55:06.997Z,101358.87
2018-10-16T14:57:35.984Z,101358.94
2018-10-16T15:00:06.764Z,101354.20
2018-10-16T15:02:35.504Z,101355.16
2018-10-16T15:05:04.477Z,101359.08
2018-10-16T15:07:33.205Z,101356.02
2018-10-16T15:10:09.145Z,101352.62
2018-10-16T15:12:38.151Z,101348.73
2018-10-16T15:15:07.943Z,101357.52
2018-10-16T15:17:36.720Z,101353.71
2018-10-16T15:20:07.111Z,101348.08
2018-10-16T15:22:35.851Z,101346.02
2018-10-16T15:25:05.473Z,101355.19
2018-10-16T15:27:34.570Z,101343.55
2018-10-16T15:30:03.587Z,101342.78
2018-10-16T15:32:32.367Z,101343.75
2018-10-16T15:35:01.557Z,101337.77
2018-10-16T15:37:30.455Z,101341.78
2018-10-16T15:39:59.255Z,101347.92
2018-10-16T15:42:28.167Z,101352.76
2018-10-16T15:44:56.960Z,101362.75
2018-10-16T15:47:26.987Z,101357.91
2018-10-16T15:49:55.708Z,101359.66
2018-10-16T15:52:24.342Z,101360.59
2018-10-16T15:54:53.007Z,101363.89
2018-10-16T15:57:22.762Z,101364.65
2018-10-16T15:59:51.438Z,101356.28
2018-10-16T16:02:20.133Z,101362.04
2018-10-16T16:04:48.625Z,101368.00
2018-10-16T16:07:17.208Z,101378.08
2018-10-16T16:09:46.162Z,101375.86
2018-10-16T16:12:15.129Z,101371.94
2018-10-16T16:14:43.850Z,101376.39
2018-10-16T16:17:12.444Z,101377.48
2018-10-16T16:19:41.190Z,101378.08
2018-10-16T16:22:09.991Z,101375.95
2018-10-16T16:24:39.178Z,101373.84
2018-10-16T16:27:07.898Z,101374.73
2018-10-16T16:29:36.672Z,101369.52
2018-10-16T16:32:05.905Z,101368.54
2018-10-16T16:34:34.551Z,101371.72
2018-10-16T16:37:03.310Z,101370.80
2018-10-16T16:39:32.209Z,101368.13
2018-10-16T16:42:00.916Z,101370.92
2018-10-16T16:44:29.594Z,101373.12
2018-10-16T16:46:58.285Z,101376.05
2018-10-16T16:49:27.616Z,101379.31
2018-10-16T16:51:56.327Z,101382.55
2018-10-16T16:54:24.956Z,101376.84
2018-10-16T16:56:53.680Z,101387.47
2018-10-16T16:59:22.312Z,101382.52
2018-10-16T17:01:51.061Z,101382.75
2018-10-16T17:04:19.751Z,101389.52
2018-10-16T17:06:48.533Z,101383.14
2018-10-16T17:09:17.097Z,101395.92
2018-10-16T17:11:45.830Z,101392.98
2018-10-16T17:14:14.470Z,101388.81
2018-10-16T17:16:43.172Z,101395.47
2018-10-16T17:19:11.794Z,101394.71
2018-10-16T17:21:40.480Z,101399.92
2018-10-16T17:24:09.177Z,101394.81
2018-10-16T17:26:37.858Z,101395.75
2018-10-16T17:29:06.872Z,101398.38
2018-10-16T17:31:35.482Z,101394.53
2018-10-16T17:34:04.152Z,101398.46
2018-10-16T17:36:32.917Z,101396.37
2018-10-16T17:39:01.808Z,101398.54
2018-10-16T17:41:30.335Z,101397.31
2018-10-16T17:43:59.040Z,101402.97
2018-10-16T17:46:27.905Z,101405.98
2018-10-16T17:48:56.537Z,101398.69
2018-10-16T17:51:25.172Z,101403.09
2018-10-16T17:53:53.759Z,101406.23
2018-10-16T17:56:22.390Z,101402.84
2018-10-16T17:58:50.941Z,101406.37
2018-10-16T18:01:19.599Z,101408.14
2018-10-16T18:03:48.219Z,101419.56
2018-10-16T18:06:16.827Z,101423.53
2018-10-16T18:08:45.540Z,101423.53
2018-10-16T18:11:14.175Z,101418.33
2018-10-16T18:13:42.918Z,101419.65
2018-10-16T18:16:11.549Z,101421.00
2018-10-16T18:18:40.439Z,101421.87
2018-10-16T18:21:09.151Z,101416.24
2018-10-16T18:23:38.040Z,101422.31
2018-10-16T18:26:06.817Z,101422.82
2018-10-16T18:28:35.606Z,101428.85
2018-10-16T18:31:04.248Z,101426.67
2018-10-16T18:33:32.887Z,101426.65
2018-10-16T18:36:02.639Z,101426.16
2018-10-16T18:38:31.393Z,101420.09
2018-10-16T18:40:59.963Z,101427.09
2018-10-16T18:43:28.538Z,101416.78
2018-10-16T18:45:57.289Z,101416.83
2018-10-16T18:48:26.585Z,101413.44
2018-10-16T18:50:55.263Z,101413.95
2018-10-16T18:53:23.937Z,101412.69
2018-10-16T18:55:52.659Z,101411.02
2018-10-16T18:58:21.798Z,101407.19
2018-10-16T19:00:50.532Z,101409.81
2018-10-16T19:03:19.178Z,101415.87
2018-10-16T19:05:47.800Z,101407.20
2018-10-16T19:08:16.357Z,101406.42
2018-10-16T19:10:45.264Z,101409.07
2018-10-16T19:13:14.355Z,101410.02
2018-10-16T19:15:43.831Z,101411.83
2018-10-16T19:18:12.495Z,101418.83
2018-10-16T19:20:41.264Z,101417.98
2018-10-16T19:23:09.875Z,101421.94
2018-10-16T19:25:38.477Z,101419.36
2018-10-16T19:28:08.004Z,101419.41
2018-10-16T19:30:39.313Z,101420.73
2018-10-16T19:33:10.206Z,101422.52
2018-10-16T19:35:38.829Z,101425.55
2018-10-16T19:38:07.544Z,101421.60
2018-10-16T19:40:36.648Z,101420.37
2018-10-16T19:43:06.213Z,101423.89
2018-10-16T19:45:35.108Z,101418.41
2018-10-16T19:48:03.857Z,101426.56
2018-10-16T19:50:32.444Z,101425.70
2018-10-16T19:53:02.724Z,101420.52
2018-10-16T19:55:31.416Z,101428.75
2018-10-16T19:58:00.056Z,101434.80
2018-10-16T20:00:28.680Z,101429.97
2018-10-16T20:02:57.346Z,101429.47
2018-10-16T20:05:26.057Z,101428.52
2018-10-16T20:07:54.703Z,101433.72
2018-10-16T20:10:23.520Z,101436.47
2018-10-16T20:12:52.185Z,101439.15
2018-10-16T20:15:21.034Z,101436.64
2018-10-16T20:17:49.660Z,101439.76
2018-10-16T20:20:18.354Z,101440.73
2018-10-16T20:22:47.007Z,101440.37
2018-10-16T20:25:15.749Z,101436.97
2018-10-16T20:27:44.227Z,101434.45
2018-10-16T20:30:13.159Z,101435.81
2018-10-16T20:32:42.331Z,101438.91
2018-10-16T20:35:11.112Z,101433.77
2018-10-16T20:37:40.156Z,101435.95
2018-10-16T20:40:08.988Z,101441.63
2018-10-16T20:42:38.477Z,101439.91
2018-10-16T20:45:07.374Z,101445.16
2018-10-16T20:47:36.156Z,101445.65
2018-10-16T20:50:04.991Z,101455.17
2018-10-16T20:52:33.656Z,101449.13
2018-10-16T20:55:03.716Z,101450.87
2018-10-16T20:57:32.351Z,101453.09
2018-10-16T21:00:01.521Z,101457.90
2018-10-16T21:02:30.079Z,101453.59
2018-10-16T21:04:58.859Z,101459.70
2018-10-16T21:07:27.425Z,101453.69
2018-10-16T21:09:55.964Z,101454.62
2018-10-16T21:12:24.577Z,101458.58
2018-10-16T21:14:53.122Z,101453.93
2018-10-16T21:17:21.712Z,101450.91
2018-10-16T21:19:50.361Z,101453.55
2018-10-16T21:22:18.954Z,101442.84
2018-10-16T21:24:47.691Z,101444.16
2018-10-16T21:27:16.260Z,101440.75
2018-10-16T21:29:44.833Z,101440.81
2018-10-16T21:32:13.461Z,101446.48
2018-10-16T21:34:42.066Z,101437.94
2018-10-16T21:37:10.714Z,101446.13
2018-10-16T21:39:40.121Z,101447.05
2018-10-16T21:42:08.709Z,101443.64
2018-10-16T21:44:37.327Z,101447.97
2018-10-16T21:47:06.147Z,101443.27
2018-10-16T21:49:34.733Z,101445.05
2018-10-16T21:52:03.567Z,101442.02
2018-10-16T21:54:32.157Z,101443.70
2018-10-16T21:57:00.725Z,101434.67
2018-10-16T21:59:29.387Z,101439.62
2018-10-16T22:03:05.771Z,101437.04
2018-10-16T22:05:34.438Z,101431.47
2018-10-16T22:08:04.404Z,101429.79
2018-10-16T22:10:32.975Z,101433.30
2018-10-16T22:13:02.163Z,101424.66
2018-10-16T22:15:30.858Z,101427.25
2018-10-16T22:17:59.518Z,101422.97
2018-10-16T22:20:28.113Z,101422.16
2018-10-16T22:22:56.787Z,101428.25
2018-10-16T22:25:25.350Z,101427.86
2018-10-16T22:27:53.879Z,101433.05
2018-10-16T22:30:22.462Z,101424.93
2018-10-16T22:32:51.046Z,101428.86
2018-10-16T22:35:19.804Z,101423.73
2018-10-16T22:37:48.396Z,101428.05
2018-10-16T22:40:16.968Z,101428.91
2018-10-16T22:42:45.727Z,101424.20
2018-10-16T22:45:14.393Z,101425.08
2018-10-16T22:47:42.943Z,101430.29
2018-10-16T22:50:12.862Z,101429.00
2018-10-16T22:52:41.420Z,101425.16
2018-10-16T22:55:10.696Z,101426.06
2018-10-16T22:57:39.708Z,101433.83
2018-10-16T23:00:14.207Z,101433.41
2018-10-16T23:02:43.448Z,101430.42
2018-10-16T23:05:12.267Z,101429.13
2018-10-16T23:07:40.860Z,101420.06
2018-10-16T23:10:09.434Z,101417.12
2018-10-16T23:12:37.966Z,101417.98
2018-10-16T23:15:07.843Z,101421.91
2018-10-16T23:17:36.392Z,101423.64
2018-10-16T23:20:05.696Z,101422.81
2018-10-16T23:22:34.263Z,101420.27
2018-10-16T23:25:03.749Z,101426.31
2018-10-16T23:27:32.415Z,101426.71
2018-10-16T23:30:01.832Z,101419.84
2018-10-16T23:32:30.421Z,101427.17
2018-10-16T23:34:59.187Z,101425.88
2018-10-16T23:37:27.776Z,101422.47
2018-10-16T23:39:56.258Z,101417.29
2018-10-16T23:42:24.902Z,101418.19
2018-10-16T23:44:53.432Z,101415.64
2018-10-16T23:47:22.003Z,101418.22
2018-10-16T23:49:50.630Z,101421.64
2018-10-16T23:52:19.137Z,101426.82
2018-10-16T23:54:47.695Z,101421.64
2018-10-16T23:57:16.245Z,101416.94
2018-10-16T23:59:44.821Z,101418.66
